createdAt,value
2023-03-22T00:00:57.456Z,16.02
2023-03-22T00:01:59.450Z,15.30
2023-03-22T00:03:01.425Z,16.00
2023-03-22T00:04:03.742Z,16.58
2023-03-22T00:05:06.385Z,16.67
2023-03-22T00:06:09.158Z,15.73
2023-03-22T00:07:11.156Z,15.73
2023-03-22T00:08:14.651Z,13.90
2023-03-22T00:09:16.941Z,14.88
2023-03-22T00:10:18.873Z,16.23
2023-03-22T00:11:24.272Z,16.05
2023-03-22T00:12:26.343Z,17.17
2023-03-22T00:13:28.434Z,17.15
2023-03-22T00:14:30.489Z,15.90
2023-03-22T00:15:32.692Z,16.30
2023-03-22T00:16:34.830Z,14.15
2023-03-22T00:17:36.935Z,13.83
2023-03-22T00:18:38.969Z,14.00
2023-03-22T00:19:42.289Z,13.50
2023-03-22T00:20:49.367Z,14.15
2023-03-22T00:21:51.579Z,14.05
2023-03-22T00:22:53.514Z,13.88
2023-03-22T00:23:55.630Z,13.82
2023-03-22T00:24:57.626Z,14.85
2023-03-22T00:25:59.605Z,13.88
2023-03-22T00:27:01.688Z,14.55
2023-03-22T00:28:03.766Z,13.27
2023-03-22T00:29:06.010Z,14.70
2023-03-22T00:30:11.249Z,13.30
2023-03-22T00:31:13.352Z,12.85
2023-03-22T00:32:16.115Z,13.35
2023-03-22T00:33:18.129Z,13.18
2023-03-22T00:34:20.693Z,13.13
2023-03-22T00:35:22.805Z,13.25
2023-03-22T00:36:24.868Z,13.88
2023-03-22T00:37:33.985Z,13.40
2023-03-22T00:38:44.844Z,14.30
2023-03-22T00:39:47.514Z,12.73
2023-03-22T00:40:49.513Z,13.85
2023-03-22T00:41:52.634Z,12.95
2023-03-22T00:42:54.676Z,13.80
2023-03-22T00:43:56.607Z,13.23
2023-03-22T00:44:58.623Z,12.60
2023-03-22T00:46:00.910Z,12.95
2023-03-22T00:47:03.062Z,13.20
2023-03-22T00:48:05.242Z,13.77
2023-03-22T00:49:07.326Z,14.37
2023-03-22T00:50:09.777Z,13.73
2023-03-22T00:51:12.378Z,12.95
2023-03-22T00:52:14.577Z,12.80
2023-03-22T00:53:17.551Z,12.45
2023-03-22T00:54:19.677Z,12.95
2023-03-22T00:55:21.708Z,12.23
2023-03-22T00:56:25.578Z,12.40
2023-03-22T00:57:34.078Z,11.25
2023-03-22T00:58:36.711Z,12.10
2023-03-22T00:59:40.088Z,11.03
2023-03-22T01:00:42.589Z,12.45
2023-03-22T01:01:44.794Z,11.50
2023-03-22T01:02:47.126Z,11.68
2023-03-22T01:03:52.930Z,11.48
2023-03-22T01:04:56.048Z,11.43
2023-03-22T01:05:58.095Z,11.55
2023-03-22T01:07:01.578Z,11.60
2023-03-22T01:08:08.665Z,11.23
2023-03-22T01:09:14.894Z,10.77
2023-03-22T01:10:17.721Z,10.50
2023-03-22T01:11:19.762Z,10.07
2023-03-22T01:12:21.910Z,10.18
2023-03-22T01:13:24.090Z,10.02
2023-03-22T01:14:26.266Z,9.70
2023-03-22T01:15:28.564Z,10.02
2023-03-22T01:16:31.066Z,9.93
2023-03-22T01:17:36.739Z,10.90
2023-03-22T01:18:38.909Z,10.50
2023-03-22T01:19:41.411Z,11.20
2023-03-22T01:20:43.481Z,11.43
2023-03-22T01:21:46.033Z,11.07
2023-03-22T01:22:48.063Z,11.48
2023-03-22T01:23:50.233Z,11.18
2023-03-22T01:24:52.316Z,11.60
2023-03-22T01:25:54.734Z,12.15
2023-03-22T01:26:57.210Z,12.60
2023-03-22T01:27:59.261Z,12.55
2023-03-22T01:29:01.414Z,13.18
2023-03-22T01:30:04.581Z,12.80
2023-03-22T01:31:07.033Z,13.80
2023-03-22T01:32:09.134Z,13.38
2023-03-22T01:33:11.661Z,12.57
2023-03-22T01:34:13.657Z,12.82
2023-03-22T01:35:16.236Z,13.60
2023-03-22T01:36:18.177Z,13.30
2023-03-22T01:37:22.029Z,13.77
2023-03-22T01:38:24.705Z,13.73
2023-03-22T01:39:33.303Z,14.02
2023-03-22T01:40:40.422Z,13.65
2023-03-22T01:41:43.072Z,13.50
2023-03-22T01:42:49.530Z,13.15
2023-03-22T01:44:17.261Z,13.30
2023-03-22T01:46:00.644Z,12.73
2023-03-22T01:47:04.918Z,13.15
2023-03-22T01:48:22.037Z,13.02
2023-03-22T01:49:29.172Z,13.13
2023-03-22T01:50:31.648Z,12.48
2023-03-22T01:51:34.713Z,13.00
2023-03-22T01:52:45.066Z,13.25
2023-03-22T01:54:06.821Z,12.83
2023-03-22T01:55:09.562Z,12.82
2023-03-22T01:56:37.813Z,12.13
2023-03-22T01:57:43.890Z,11.90
2023-03-22T01:58:55.169Z,11.05
2023-03-22T02:00:19.135Z,12.00
2023-03-22T02:01:41.172Z,11.75
2023-03-22T02:02:50.513Z,12.02
2023-03-22T02:04:07.233Z,11.73
2023-03-22T02:05:09.993Z,10.85
2023-03-22T02:06:12.310Z,10.03
2023-03-22T02:07:16.300Z,10.77
2023-03-22T02:08:21.824Z,10.63
2023-03-22T02:09:30.582Z,11.00
2023-03-22T02:10:32.795Z,10.93
2023-03-22T02:11:46.320Z,10.77
2023-03-22T02:13:24.496Z,11.20
2023-03-22T02:15:17.417Z,11.73
2023-03-22T02:17:32.393Z,12.02
2023-03-22T02:18:47.013Z,10.85
2023-03-22T02:20:10.107Z,11.40
2023-03-22T02:21:34.484Z,11.63
2023-03-22T02:22:42.467Z,10.75
2023-03-22T02:24:09.219Z,11.82
2023-03-22T02:25:47.993Z,11.70
2023-03-22T02:26:59.635Z,11.93
2023-03-22T02:28:19.672Z,11.60
2023-03-22T02:30:00.420Z,11.45
2023-03-22T02:31:14.037Z,11.93
2023-03-22T02:32:53.211Z,12.32
2023-03-22T02:34:16.274Z,11.60
2023-03-22T02:35:38.885Z,11.60
2023-03-22T02:36:52.462Z,11.65
2023-03-22T02:38:13.670Z,11.20
2023-03-22T02:39:32.750Z,11.35
2023-03-22T02:40:40.897Z,11.15
2023-03-22T02:41:59.317Z,11.00
2023-03-22T02:43:16.227Z,10.18
2023-03-22T02:44:27.553Z,10.65
2023-03-22T02:45:36.942Z,10.70
2023-03-22T02:46:43.688Z,11.00
2023-03-22T02:48:13.162Z,10.35
2023-03-22T02:49:36.324Z,9.75
2023-03-22T02:50:46.704Z,9.55
2023-03-22T02:52:12.135Z,9.90
2023-03-22T02:53:32.728Z,9.90
2023-03-22T02:54:48.489Z,10.10
2023-03-22T02:56:02.530Z,9.85
2023-03-22T02:57:15.773Z,10.15
2023-03-22T02:58:25.620Z,10.43
2023-03-22T02:59:29.900Z,10.60
2023-03-22T03:00:36.232Z,10.75
2023-03-22T03:01:47.199Z,10.75
2023-03-22T03:02:57.021Z,11.35
2023-03-22T03:04:02.637Z,10.95
2023-03-22T03:05:08.589Z,10.90
2023-03-22T03:06:16.652Z,11.45
2023-03-22T03:07:22.851Z,11.18
2023-03-22T03:08:27.497Z,11.10
2023-03-22T03:09:31.735Z,10.75
2023-03-22T03:10:35.802Z,11.60
2023-03-22T03:11:37.962Z,11.77
2023-03-22T03:12:40.400Z,10.60
2023-03-22T03:13:42.578Z,10.68
2023-03-22T03:14:44.836Z,11.70
2023-03-22T03:15:52.800Z,11.30
2023-03-22T03:17:01.048Z,11.15
2023-03-22T03:18:15.197Z,11.20
2023-03-22T03:19:25.534Z,11.23
2023-03-22T03:20:30.356Z,11.05
2023-03-22T03:22:08.332Z,10.03
2023-03-22T03:23:49.713Z,10.35
2023-03-22T03:25:04.204Z,9.57
2023-03-22T03:26:18.142Z,10.45
2023-03-22T03:27:36.850Z,10.52
2023-03-22T03:28:47.739Z,10.05
2023-03-22T03:30:02.512Z,10.65
2023-03-22T03:31:10.168Z,11.07
2023-03-22T03:32:42.092Z,10.57
2023-03-22T03:34:02.893Z,10.45
2023-03-22T03:35:22.525Z,10.33
2023-03-22T03:36:26.364Z,10.27
2023-03-22T03:37:41.611Z,10.77
2023-03-22T03:38:48.592Z,10.60
2023-03-22T03:40:01.645Z,10.55
2023-03-22T03:41:08.610Z,10.70
2023-03-22T03:42:14.839Z,10.75
2023-03-22T03:43:17.648Z,11.23
2023-03-22T03:44:20.436Z,11.43
2023-03-22T03:45:25.064Z,10.98
2023-03-22T03:46:29.146Z,11.07
2023-03-22T03:47:32.317Z,11.20
2023-03-22T03:48:37.413Z,11.75
2023-03-22T03:49:39.708Z,11.20
2023-03-22T03:50:42.925Z,11.32
2023-03-22T03:51:52.292Z,11.15
2023-03-22T03:52:56.069Z,11.27
2023-03-22T03:53:58.498Z,10.80
2023-03-22T03:55:00.480Z,10.43
2023-03-22T03:56:07.974Z,10.73
2023-03-22T03:57:16.743Z,10.40
2023-03-22T03:58:18.714Z,10.23
2023-03-22T03:59:22.173Z,10.07
2023-03-22T04:00:26.143Z,10.52
2023-03-22T04:02:06.615Z,9.57
2023-03-22T04:03:09.148Z,10.25
2023-03-22T04:04:27.016Z,9.82
2023-03-22T04:05:39.291Z,9.98
2023-03-22T04:06:41.787Z,10.40
2023-03-22T04:07:48.789Z,9.88
2023-03-22T04:08:53.771Z,10.30
2023-03-22T04:10:00.044Z,9.77
2023-03-22T04:11:06.826Z,9.55
2023-03-22T04:12:12.553Z,13.95
2023-03-22T04:13:14.584Z,9.43
2023-03-22T04:14:16.884Z,9.77
2023-03-22T04:15:22.177Z,9.68
2023-03-22T04:16:28.830Z,10.07
2023-03-22T04:17:32.157Z,9.70
2023-03-22T04:18:34.559Z,10.27
2023-03-22T04:19:39.694Z,9.57
2023-03-22T04:20:42.973Z,9.77
2023-03-22T04:21:45.902Z,9.35
2023-03-22T04:22:49.023Z,9.38
2023-03-22T04:23:51.573Z,9.82
2023-03-22T04:24:53.767Z,10.00
2023-03-22T04:25:59.666Z,9.93
2023-03-22T04:27:12.251Z,10.30
2023-03-22T04:28:26.322Z,9.50
2023-03-22T04:29:32.293Z,10.32
2023-03-22T04:30:54.364Z,9.60
2023-03-22T04:32:16.963Z,10.45
2023-03-22T04:33:19.953Z,9.82
2023-03-22T04:34:43.397Z,10.60
2023-03-22T04:35:48.337Z,10.43
2023-03-22T04:36:50.759Z,10.98
2023-03-22T04:38:01.295Z,10.18
2023-03-22T04:39:09.508Z,11.00
2023-03-22T04:40:16.903Z,10.60
2023-03-22T04:41:31.287Z,10.98
2023-03-22T04:42:33.627Z,10.80
2023-03-22T04:43:47.093Z,10.93
2023-03-22T04:44:50.868Z,10.23
2023-03-22T04:45:55.049Z,11.00
2023-03-22T04:47:01.299Z,10.48
2023-03-22T04:48:03.415Z,10.70
2023-03-22T04:49:06.906Z,10.40
2023-03-22T04:50:12.504Z,9.80
2023-03-22T04:51:26.981Z,9.48
2023-03-22T04:52:50.057Z,10.45
2023-03-22T04:53:52.971Z,10.90
2023-03-22T04:54:55.349Z,10.32
2023-03-22T04:55:57.943Z,10.80
2023-03-22T04:57:01.900Z,10.20
2023-03-22T04:58:07.948Z,9.75
2023-03-22T04:59:11.425Z,9.30
2023-03-22T05:00:13.804Z,9.93
2023-03-22T05:01:18.125Z,10.25
2023-03-22T05:02:22.689Z,10.13
2023-03-22T05:03:25.740Z,10.32
2023-03-22T05:04:28.647Z,10.23
2023-03-22T05:05:37.567Z,10.32
2023-03-22T05:06:39.619Z,10.23
2023-03-22T05:07:48.073Z,10.23
2023-03-22T05:08:50.284Z,10.00
2023-03-22T05:09:53.817Z,10.65
2023-03-22T05:10:58.118Z,10.45
2023-03-22T05:12:00.153Z,9.25
2023-03-22T05:13:07.854Z,9.13
2023-03-22T05:14:14.999Z,10.50
2023-03-22T05:15:17.155Z,8.80
2023-03-22T05:16:19.534Z,9.15
2023-03-22T05:17:25.728Z,9.25
2023-03-22T05:18:32.700Z,9.38
2023-03-22T05:19:34.686Z,9.68
2023-03-22T05:20:37.720Z,9.43
2023-03-22T05:21:46.834Z,9.60
2023-03-22T05:22:50.649Z,9.45
2023-03-22T05:23:58.433Z,10.10
2023-03-22T05:25:00.809Z,9.90
2023-03-22T05:26:04.192Z,10.37
2023-03-22T05:27:07.094Z,10.50
2023-03-22T05:28:09.121Z,9.98
2023-03-22T05:29:24.454Z,10.75
2023-03-22T05:30:42.977Z,10.20
2023-03-22T05:32:05.570Z,10.70
2023-03-22T05:33:08.733Z,10.65
2023-03-22T05:34:15.932Z,11.05
2023-03-22T05:35:18.798Z,10.98
2023-03-22T05:36:26.077Z,10.70
2023-03-22T05:37:54.514Z,9.63
2023-03-22T05:38:57.666Z,11.10
2023-03-22T05:39:59.706Z,10.15
2023-03-22T05:41:13.959Z,10.98
2023-03-22T05:42:16.784Z,10.27
2023-03-22T05:43:19.362Z,10.10
2023-03-22T05:44:24.592Z,11.32
2023-03-22T05:45:42.100Z,11.15
2023-03-22T05:47:00.584Z,10.88
2023-03-22T05:48:08.406Z,10.23
2023-03-22T05:49:12.200Z,10.63
2023-03-22T05:50:18.035Z,9.65
2023-03-22T05:51:20.022Z,10.02
2023-03-22T05:52:26.391Z,10.07
2023-03-22T05:53:54.773Z,11.00
2023-03-22T05:55:01.238Z,11.15
2023-03-22T05:56:03.663Z,11.20
2023-03-22T05:57:08.215Z,12.85
2023-03-22T05:58:10.921Z,11.60
2023-03-22T05:59:14.822Z,12.02
2023-03-22T06:00:19.159Z,12.23
2023-03-22T06:01:41.068Z,11.75
2023-03-22T06:02:56.786Z,11.32
2023-03-22T06:03:59.402Z,12.15
2023-03-22T06:05:10.977Z,11.70
2023-03-22T06:06:13.905Z,11.90
2023-03-22T06:07:29.015Z,12.07
2023-03-22T06:08:35.879Z,11.73
2023-03-22T06:09:38.076Z,12.25
2023-03-22T06:10:43.585Z,11.93
2023-03-22T06:11:46.092Z,12.03
2023-03-22T06:12:50.670Z,11.55
2023-03-22T06:13:59.742Z,11.55
2023-03-22T06:15:08.904Z,11.95
2023-03-22T06:16:11.250Z,12.00
2023-03-22T06:17:13.676Z,12.20
2023-03-22T06:18:16.421Z,11.88
2023-03-22T06:19:23.817Z,12.02
2023-03-22T06:20:25.943Z,11.68
2023-03-22T06:21:34.852Z,12.10
2023-03-22T06:22:37.286Z,10.97
2023-03-22T06:23:39.439Z,11.82
2023-03-22T06:24:42.498Z,11.68
2023-03-22T06:25:48.295Z,10.77
2023-03-22T06:26:51.579Z,10.93
2023-03-22T06:27:53.812Z,11.25
2023-03-22T06:28:56.377Z,10.63
2023-03-22T06:29:58.450Z,11.02
2023-03-22T06:31:07.497Z,10.73
2023-03-22T06:32:28.848Z,10.93
2023-03-22T06:33:32.021Z,11.33
2023-03-22T06:34:40.069Z,10.73
2023-03-22T06:35:42.729Z,10.80
2023-03-22T06:36:48.621Z,10.63
2023-03-22T06:38:00.349Z,10.80
2023-03-22T06:39:05.290Z,11.65
2023-03-22T06:40:09.119Z,10.70
2023-03-22T06:41:11.524Z,10.82
2023-03-22T06:42:13.751Z,11.00
2023-03-22T06:43:16.585Z,11.75
2023-03-22T06:44:22.638Z,10.83
2023-03-22T06:45:27.301Z,10.87
2023-03-22T06:46:29.346Z,11.25
2023-03-22T06:47:41.061Z,11.80
2023-03-22T06:48:49.513Z,10.90
2023-03-22T06:49:52.264Z,10.50
2023-03-22T06:50:59.801Z,10.55
2023-03-22T06:52:07.510Z,9.75
2023-03-22T06:53:12.149Z,10.32
2023-03-22T06:54:16.133Z,10.68
2023-03-22T06:55:18.218Z,10.23
2023-03-22T06:56:20.291Z,10.77
2023-03-22T06:57:26.483Z,10.13
2023-03-22T06:58:28.617Z,10.98
2023-03-22T06:59:31.012Z,11.05
2023-03-22T07:00:34.324Z,11.27
2023-03-22T07:01:36.576Z,10.90
2023-03-22T07:02:38.782Z,12.02
2023-03-22T07:04:16.139Z,11.50
2023-03-22T07:05:20.974Z,11.02
2023-03-22T07:06:23.045Z,11.20
2023-03-22T07:07:26.250Z,11.20
2023-03-22T07:08:28.344Z,11.10
2023-03-22T07:09:30.343Z,11.05
2023-03-22T07:10:34.671Z,11.02
2023-03-22T07:11:36.790Z,11.70
2023-03-22T07:12:39.272Z,11.02
2023-03-22T07:13:47.190Z,11.38
2023-03-22T07:14:53.596Z,11.77
2023-03-22T07:16:04.891Z,11.10
2023-03-22T07:17:14.423Z,11.20
2023-03-22T07:18:16.743Z,11.53
2023-03-22T07:19:19.326Z,11.40
2023-03-22T07:20:22.259Z,11.75
2023-03-22T07:21:24.956Z,11.30
2023-03-22T07:22:31.461Z,11.82
2023-03-22T07:23:33.495Z,12.07
2023-03-22T07:24:53.885Z,12.27
2023-03-22T07:26:00.777Z,11.57
2023-03-22T07:27:06.891Z,12.02
2023-03-22T07:28:11.333Z,11.97
2023-03-22T07:29:13.406Z,11.50
2023-03-22T07:30:15.584Z,11.55
2023-03-22T07:31:20.508Z,11.70
2023-03-22T07:32:31.677Z,11.57
2023-03-22T07:33:41.699Z,11.43
2023-03-22T07:34:43.875Z,11.52
2023-03-22T07:35:50.655Z,12.40
2023-03-22T07:36:52.829Z,12.02
2023-03-22T07:37:56.146Z,11.68
2023-03-22T07:39:05.958Z,11.27
2023-03-22T07:40:11.960Z,11.43
2023-03-22T07:41:14.442Z,12.13
2023-03-22T07:42:36.851Z,10.93
2023-03-22T07:44:14.778Z,11.85
2023-03-22T07:45:27.745Z,10.55
2023-03-22T07:46:51.836Z,9.63
2023-03-22T07:48:01.269Z,9.70
2023-03-22T07:49:19.771Z,8.88
2023-03-22T07:50:38.911Z,9.02
2023-03-22T07:51:41.591Z,8.77
2023-03-22T07:52:44.912Z,8.60
2023-03-22T07:53:47.124Z,7.82
2023-03-22T07:54:49.521Z,8.32
2023-03-22T07:55:51.544Z,9.73
2023-03-22T07:56:53.636Z,8.85
2023-03-22T07:57:56.510Z,9.23
2023-03-22T07:58:58.889Z,9.05
2023-03-22T08:00:01.454Z,9.45
2023-03-22T08:01:17.399Z,9.30
2023-03-22T08:02:30.274Z,8.68
2023-03-22T08:03:35.183Z,9.73
2023-03-22T08:04:43.826Z,8.70
2023-03-22T08:05:51.777Z,8.27
2023-03-22T08:06:58.644Z,8.60
2023-03-22T08:08:00.698Z,9.05
2023-03-22T08:09:08.526Z,9.32
2023-03-22T08:10:10.972Z,9.90
2023-03-22T08:11:13.512Z,9.93
2023-03-22T08:12:15.799Z,10.02
2023-03-22T08:13:18.810Z,10.60
2023-03-22T08:14:30.566Z,10.13
2023-03-22T08:15:38.422Z,10.20
2023-03-22T08:16:41.788Z,10.02
2023-03-22T08:17:43.868Z,10.15
2023-03-22T08:18:51.598Z,10.32
2023-03-22T08:19:56.584Z,10.10
2023-03-22T08:21:09.874Z,9.80
2023-03-22T08:22:13.730Z,9.90
2023-03-22T08:23:42.506Z,9.65
2023-03-22T08:25:04.700Z,9.98
2023-03-22T08:26:11.773Z,9.53
2023-03-22T08:27:14.240Z,9.02
2023-03-22T08:28:24.114Z,9.57
2023-03-22T08:29:26.756Z,9.15
2023-03-22T08:30:29.020Z,9.10
2023-03-22T08:31:31.690Z,9.25
2023-03-22T08:32:34.729Z,7.65
2023-03-22T08:33:37.776Z,7.28
2023-03-22T08:34:41.438Z,7.45
2023-03-22T08:35:45.087Z,7.80
2023-03-22T08:36:47.190Z,8.03
2023-03-22T08:37:53.042Z,8.00
2023-03-22T08:38:55.394Z,8.00
2023-03-22T08:40:09.653Z,7.25
2023-03-22T08:41:26.126Z,7.30
2023-03-22T08:42:28.133Z,7.25
2023-03-22T08:43:30.269Z,6.85
2023-03-22T08:44:32.541Z,7.30
2023-03-22T08:45:37.776Z,7.45
2023-03-22T08:46:45.628Z,7.78
2023-03-22T08:47:47.944Z,7.47
2023-03-22T08:48:50.871Z,7.18
2023-03-22T08:50:03.168Z,7.47
2023-03-22T08:51:27.179Z,7.75
2023-03-22T08:52:39.760Z,8.40
2023-03-22T08:53:52.928Z,8.15
2023-03-22T08:55:21.139Z,8.30
2023-03-22T08:56:41.861Z,8.10
2023-03-22T08:57:59.146Z,7.47
2023-03-22T08:59:21.247Z,7.43
2023-03-22T09:00:47.830Z,6.90
2023-03-22T09:02:05.772Z,6.90
2023-03-22T09:03:07.894Z,7.10
2023-03-22T09:04:10.817Z,6.53
2023-03-22T09:05:14.262Z,6.32
2023-03-22T09:06:17.791Z,6.55
2023-03-22T09:07:20.892Z,6.28
2023-03-22T09:08:31.672Z,6.05
2023-03-22T09:09:40.759Z,6.10
2023-03-22T09:10:44.199Z,5.80
2023-03-22T09:11:47.845Z,6.40
2023-03-22T09:12:49.915Z,6.18
2023-03-22T09:13:52.515Z,6.13
2023-03-22T09:14:56.887Z,6.25
2023-03-22T09:16:01.061Z,5.90
2023-03-22T09:17:06.444Z,5.60
2023-03-22T09:18:08.544Z,6.03
2023-03-22T09:19:11.157Z,5.90
2023-03-22T09:20:13.479Z,5.97
2023-03-22T09:21:18.420Z,5.88
2023-03-22T09:22:40.758Z,5.43
2023-03-22T09:23:47.784Z,5.70
2023-03-22T09:24:51.801Z,6.30
2023-03-22T09:25:53.954Z,6.13
2023-03-22T09:26:59.198Z,5.72
2023-03-22T09:28:04.533Z,6.15
2023-03-22T09:29:07.031Z,6.28
2023-03-22T09:30:09.967Z,6.47
2023-03-22T09:31:12.191Z,6.32
2023-03-22T09:32:16.372Z,6.10
2023-03-22T09:33:21.223Z,5.77
2023-03-22T09:34:25.925Z,5.90
2023-03-22T09:35:28.098Z,6.43
2023-03-22T09:36:36.061Z,6.30
2023-03-22T09:37:39.043Z,6.10
2023-03-22T09:38:42.089Z,6.55
2023-03-22T09:39:44.751Z,6.70
2023-03-22T09:41:00.838Z,6.40
2023-03-22T09:42:24.345Z,6.43
2023-03-22T09:43:33.062Z,6.15
2023-03-22T09:44:43.155Z,6.40
2023-03-22T09:45:51.999Z,6.43
2023-03-22T09:46:56.861Z,6.15
2023-03-22T09:47:59.899Z,6.43
2023-03-22T09:49:06.172Z,6.20
2023-03-22T09:50:20.295Z,5.97
2023-03-22T09:51:28.274Z,6.72
2023-03-22T09:52:31.041Z,6.60
2023-03-22T09:53:33.352Z,5.93
2023-03-22T09:54:38.600Z,6.18
2023-03-22T09:56:04.179Z,6.30
2023-03-22T09:57:15.687Z,6.03
2023-03-22T09:58:29.366Z,6.93
2023-03-22T09:59:40.950Z,6.63
2023-03-22T10:01:05.316Z,6.68
2023-03-22T10:02:32.212Z,6.65
2023-03-22T10:04:14.445Z,6.93
2023-03-22T10:05:21.572Z,6.20
2023-03-22T10:06:28.219Z,6.00
2023-03-22T10:07:52.774Z,6.47
2023-03-22T10:09:03.054Z,6.53
2023-03-22T10:10:28.152Z,6.00
2023-03-22T10:11:36.171Z,6.50
2023-03-22T10:13:08.324Z,6.30
2023-03-22T10:14:31.141Z,6.72
2023-03-22T10:15:45.946Z,6.30
2023-03-22T10:16:48.678Z,6.70
2023-03-22T10:17:54.410Z,6.30
2023-03-22T10:19:04.501Z,6.80
2023-03-22T10:20:37.003Z,6.72
2023-03-22T10:21:39.790Z,6.83
2023-03-22T10:22:44.765Z,6.80
2023-03-22T10:24:03.979Z,7.43
2023-03-22T10:25:08.899Z,6.40
2023-03-22T10:26:21.009Z,6.40
2023-03-22T10:27:26.355Z,7.00
2023-03-22T10:28:48.755Z,7.00
2023-03-22T10:30:03.058Z,7.57
2023-03-22T10:31:06.043Z,7.70
2023-03-22T10:32:20.748Z,7.72
2023-03-22T10:33:50.486Z,7.03
2023-03-22T10:34:53.071Z,6.97
2023-03-22T10:35:56.668Z,7.60
2023-03-22T10:37:01.542Z,7.50
2023-03-22T10:38:19.188Z,7.28
2023-03-22T10:39:30.088Z,7.35
2023-03-22T10:40:34.962Z,7.20
2023-03-22T10:41:37.766Z,7.45
2023-03-22T10:42:40.908Z,7.20
2023-03-22T10:43:44.900Z,7.25
2023-03-22T10:44:52.044Z,6.80
2023-03-22T10:45:56.750Z,6.30
2023-03-22T10:47:07.405Z,7.35
2023-03-22T10:48:24.695Z,6.95
2023-03-22T10:49:33.166Z,6.57
2023-03-22T10:50:42.226Z,6.18
2023-03-22T10:51:49.162Z,6.80
2023-03-22T10:53:13.177Z,6.50
2023-03-22T10:54:26.262Z,6.28
2023-03-22T10:55:28.875Z,6.25
2023-03-22T10:56:31.241Z,6.20
2023-03-22T10:57:33.292Z,6.57
2023-03-22T10:58:35.632Z,6.82
2023-03-22T10:59:51.790Z,6.28
2023-03-22T11:00:59.695Z,6.85
2023-03-22T11:02:02.070Z,6.00
2023-03-22T11:03:06.421Z,6.00
2023-03-22T11:04:16.235Z,6.50
2023-03-22T11:05:25.856Z,6.00
2023-03-22T11:06:32.960Z,6.18
2023-03-22T11:07:39.007Z,5.90
2023-03-22T11:08:51.672Z,6.03
2023-03-22T11:10:08.805Z,6.38
2023-03-22T11:11:19.849Z,6.22
2023-03-22T11:12:23.403Z,6.45
2023-03-22T11:13:26.151Z,6.38
2023-03-22T11:14:42.864Z,6.57
2023-03-22T11:16:03.149Z,7.00
2023-03-22T11:17:14.187Z,6.90
2023-03-22T11:18:18.222Z,6.70
2023-03-22T11:19:32.242Z,6.97
2023-03-22T11:20:34.996Z,6.78
2023-03-22T11:21:37.078Z,6.55
2023-03-22T11:22:44.407Z,6.03
2023-03-22T11:24:13.206Z,6.20
2023-03-22T11:25:26.869Z,6.13
2023-03-22T11:26:37.447Z,6.72
2023-03-22T11:28:06.220Z,6.72
2023-03-22T11:29:13.618Z,6.75
2023-03-22T11:30:22.436Z,6.85
2023-03-22T11:31:26.095Z,6.90
2023-03-22T11:32:35.523Z,6.63
2023-03-22T11:33:38.580Z,7.07
2023-03-22T11:34:46.426Z,6.78
2023-03-22T11:35:55.831Z,6.65
2023-03-22T11:37:01.216Z,7.25
2023-03-22T11:38:04.216Z,7.55
2023-03-22T11:39:08.188Z,7.60
2023-03-22T11:40:18.844Z,8.07
2023-03-22T11:41:24.798Z,7.80
2023-03-22T11:42:27.172Z,7.60
2023-03-22T11:43:48.437Z,7.07
2023-03-22T11:44:52.219Z,7.20
2023-03-22T11:45:57.393Z,7.22
2023-03-22T11:47:02.117Z,7.15
2023-03-22T11:48:16.482Z,7.38
2023-03-22T11:49:19.155Z,6.85
2023-03-22T11:50:34.740Z,7.10
2023-03-22T11:51:39.305Z,6.53
2023-03-22T11:52:47.981Z,6.50
2023-03-22T11:53:50.192Z,6.97
2023-03-22T11:54:54.159Z,6.90
2023-03-22T11:55:57.921Z,6.53
2023-03-22T11:57:04.399Z,6.55
2023-03-22T11:58:06.893Z,6.60
2023-03-22T11:59:14.642Z,6.03
2023-03-22T12:00:21.569Z,5.93
2023-03-22T12:01:52.494Z,6.20
2023-03-22T12:03:07.076Z,5.82
2023-03-22T12:04:20.341Z,5.90
2023-03-22T12:05:28.547Z,5.73
2023-03-22T12:06:36.512Z,6.32
2023-03-22T12:07:41.196Z,6.43
2023-03-22T12:08:47.388Z,6.20
2023-03-22T12:10:02.223Z,6.25
2023-03-22T12:11:07.708Z,6.28
2023-03-22T12:12:21.431Z,5.80
2023-03-22T12:13:44.003Z,6.28
2023-03-22T12:15:01.285Z,6.05
2023-03-22T12:16:06.556Z,5.57
2023-03-22T12:17:16.935Z,6.43
2023-03-22T12:18:34.572Z,6.72
2023-03-22T12:20:18.662Z,6.85
2023-03-22T12:21:20.778Z,6.90
2023-03-22T12:22:32.769Z,7.10
2023-03-22T12:23:35.826Z,6.70
2023-03-22T12:24:37.874Z,7.40
2023-03-22T12:25:42.947Z,7.10
2023-03-22T12:26:45.718Z,7.00
2023-03-22T12:27:57.216Z,6.53
2023-03-22T12:29:01.625Z,7.60
2023-03-22T12:30:14.204Z,7.10
2023-03-22T12:31:26.591Z,7.72
2023-03-22T12:32:36.283Z,7.22
2023-03-22T12:33:47.482Z,7.07
2023-03-22T12:34:55.137Z,6.25
2023-03-22T12:36:06.326Z,6.90
2023-03-22T12:37:16.331Z,7.00
2023-03-22T12:38:40.644Z,6.63
2023-03-22T12:39:53.946Z,5.82
2023-03-22T12:41:00.542Z,6.80
2023-03-22T12:42:40.666Z,6.75
2023-03-22T12:44:01.554Z,7.60
2023-03-22T12:45:11.238Z,6.93
2023-03-22T12:46:28.241Z,7.10
2023-03-22T12:47:46.494Z,7.43
2023-03-22T12:49:19.388Z,7.45
2023-03-22T12:50:28.953Z,7.32
2023-03-22T12:51:31.070Z,7.60
2023-03-22T12:52:46.113Z,7.22
2023-03-22T12:53:54.573Z,7.43
2023-03-22T12:54:59.264Z,7.82
2023-03-22T12:56:01.862Z,15.43
2023-03-22T12:57:04.659Z,7.72
2023-03-22T12:58:12.959Z,7.82
2023-03-22T12:59:23.410Z,7.32
2023-03-22T13:00:50.560Z,6.85
2023-03-22T13:02:15.566Z,7.25
2023-03-22T13:03:17.673Z,7.43
2023-03-22T13:04:28.146Z,6.53
2023-03-22T13:05:33.699Z,6.73
2023-03-22T13:06:44.660Z,6.45
2023-03-22T13:07:46.747Z,6.68
2023-03-22T13:09:08.913Z,6.55
2023-03-22T13:10:29.540Z,6.80
2023-03-22T13:11:31.675Z,6.63
2023-03-22T13:12:34.713Z,6.53
2023-03-22T13:13:46.555Z,6.90
2023-03-22T13:14:57.659Z,6.97
2023-03-22T13:16:08.904Z,6.80
2023-03-22T13:17:11.288Z,6.53
2023-03-22T13:18:45.395Z,6.30
2023-03-22T13:19:54.379Z,6.40
2023-03-22T13:21:23.618Z,6.40
2023-03-22T13:22:51.880Z,6.47
2023-03-22T13:23:58.388Z,6.65
2023-03-22T13:25:12.600Z,6.43
2023-03-22T13:26:16.346Z,6.05
2023-03-22T13:27:18.347Z,5.85
2023-03-22T13:28:22.808Z,6.00
2023-03-22T13:29:24.794Z,6.43
2023-03-22T13:30:37.008Z,6.40
2023-03-22T13:32:02.204Z,6.90
2023-03-22T13:33:10.037Z,7.07
2023-03-22T13:34:34.005Z,6.18
2023-03-22T13:35:51.123Z,6.40
2023-03-22T13:36:56.374Z,6.95
2023-03-22T13:38:06.958Z,6.25
2023-03-22T13:39:12.497Z,6.30
2023-03-22T13:40:26.760Z,6.88
2023-03-22T13:41:35.224Z,6.30
2023-03-22T13:42:40.089Z,6.78
2023-03-22T13:43:50.446Z,6.93
2023-03-22T13:44:58.665Z,6.28
2023-03-22T13:46:03.806Z,5.75
2023-03-22T13:47:28.597Z,5.93
2023-03-22T13:48:43.812Z,6.20
2023-03-22T13:49:53.246Z,5.90
2023-03-22T13:50:56.669Z,6.47
2023-03-22T13:52:06.806Z,6.07
2023-03-22T13:53:33.864Z,6.33
2023-03-22T13:54:47.623Z,6.32
2023-03-22T13:55:51.483Z,6.60
2023-03-22T13:56:58.546Z,6.47
2023-03-22T13:58:01.803Z,6.82
2023-03-22T13:59:05.272Z,7.03
2023-03-22T14:00:32.835Z,6.97
2023-03-22T14:01:38.278Z,6.40
2023-03-22T14:02:42.482Z,6.38
2023-03-22T14:03:47.584Z,6.20
2023-03-22T14:05:01.963Z,6.60
2023-03-22T14:06:21.886Z,6.20
2023-03-22T14:07:33.528Z,5.68
2023-03-22T14:08:37.486Z,5.82
2023-03-22T14:09:45.458Z,5.88
2023-03-22T14:11:01.912Z,6.75
2023-03-22T14:12:18.332Z,5.70
2023-03-22T14:13:35.092Z,6.18
2023-03-22T14:14:43.224Z,6.25
2023-03-22T14:15:53.701Z,7.15
2023-03-22T14:17:21.060Z,7.40
2023-03-22T14:18:36.152Z,6.32
2023-03-22T14:19:39.072Z,6.50
2023-03-22T14:20:41.823Z,6.68
